createdAt,value
2023-04-12T00:01:20.442Z,1.20
2023-04-12T00:03:47.058Z,1.40
2023-04-12T00:06:13.656Z,1.00
2023-04-12T00:08:40.164Z,1.05
2023-04-12T00:11:06.935Z,1.20
2023-04-12T00:13:33.414Z,1.60
2023-04-12T00:15:59.987Z,1.10
2023-04-12T00:18:26.786Z,1.10
2023-04-12T00:20:53.571Z,1.02
2023-04-12T00:23:20.376Z,1.20
2023-04-12T00:25:47.482Z,1.00
2023-04-12T00:28:14.600Z,1.17
2023-04-12T00:30:41.280Z,1.00
2023-04-12T00:33:08.204Z,1.20
2023-04-12T00:35:34.763Z,1.00
2023-04-12T00:38:01.274Z,0.90
2023-04-12T00:40:28.000Z,1.35
2023-04-12T00:42:54.622Z,1.08
2023-04-12T00:45:21.126Z,1.17
2023-04-12T00:47:48.865Z,1.20
2023-04-12T00:50:15.421Z,1.20
2023-04-12T00:52:42.026Z,1.45
2023-04-12T00:55:09.459Z,1.48
2023-04-12T00:57:38.350Z,1.23
2023-04-12T01:00:10.160Z,1.10
2023-04-12T01:02:36.946Z,1.30
2023-04-12T01:05:03.655Z,1.10
2023-04-12T01:07:47.990Z,1.30
2023-04-12T01:10:20.406Z,1.10
2023-04-12T01:13:00.745Z,1.23
2023-04-12T01:15:28.838Z,1.30
2023-04-12T01:18:00.155Z,1.17
2023-04-12T01:20:30.143Z,1.23
2023-04-12T01:23:25.894Z,1.38
2023-04-12T01:26:25.888Z,1.15
2023-04-12T01:28:54.232Z,1.25
2023-04-12T01:31:21.375Z,1.10
2023-04-12T01:33:49.561Z,1.45
2023-04-12T01:36:21.806Z,1.40
2023-04-12T01:38:48.571Z,1.63
2023-04-12T01:41:15.559Z,1.60
2023-04-12T01:43:46.211Z,1.50
2023-04-12T01:46:13.881Z,1.67
2023-04-12T01:48:41.486Z,1.58
2023-04-12T01:51:14.119Z,1.77
2023-04-12T01:53:45.445Z,1.98
2023-04-12T01:56:12.270Z,2.08
2023-04-12T01:58:39.553Z,1.98
2023-04-12T02:01:07.083Z,1.85
2023-04-12T02:03:33.794Z,1.80
2023-04-12T02:06:00.936Z,1.92
2023-04-12T02:08:27.492Z,1.77
2023-04-12T02:10:53.998Z,1.70
2023-04-12T02:13:20.630Z,2.00
2023-04-12T02:15:47.553Z,1.48
2023-04-12T02:18:14.209Z,1.90
2023-04-12T02:20:40.693Z,1.60
2023-04-12T02:23:07.175Z,1.73
2023-04-12T02:25:33.651Z,1.70
2023-04-12T02:28:00.804Z,1.83
2023-04-12T02:30:27.355Z,1.70
2023-04-12T02:32:54.079Z,1.83
2023-04-12T02:35:20.786Z,1.58
2023-04-12T02:37:47.480Z,1.90
2023-04-12T02:40:15.004Z,1.85
2023-04-12T02:42:44.517Z,2.25
2023-04-12T02:45:11.682Z,1.95
2023-04-12T02:47:38.213Z,1.70
2023-04-12T02:50:05.657Z,1.92
2023-04-12T02:52:32.323Z,2.10
2023-04-12T02:54:59.232Z,2.17
2023-04-12T02:57:25.746Z,1.90
2023-04-12T02:59:52.259Z,1.75
2023-04-12T03:02:19.880Z,2.20
2023-04-12T03:04:46.533Z,1.90
2023-04-12T03:07:14.077Z,1.98
2023-04-12T03:09:40.547Z,1.67
2023-04-12T03:12:07.376Z,1.88
2023-04-12T03:14:33.994Z,1.60
2023-04-12T03:17:00.488Z,1.70
2023-04-12T03:19:26.952Z,1.55
2023-04-12T03:21:53.808Z,2.00
2023-04-12T03:24:20.365Z,1.90
2023-04-12T03:26:47.129Z,1.75
2023-04-12T03:29:13.662Z,1.45
2023-04-12T03:31:40.351Z,1.50
2023-04-12T03:34:07.252Z,1.65
2023-04-12T03:36:33.756Z,1.70
2023-04-12T03:39:00.308Z,1.80
2023-04-12T03:41:28.481Z,1.50
2023-04-12T03:43:55.621Z,1.75
2023-04-12T03:46:22.496Z,1.50
2023-04-12T03:48:49.393Z,1.48
2023-04-12T03:51:16.303Z,1.60
2023-04-12T03:53:42.876Z,1.60
2023-04-12T03:56:09.428Z,1.48
2023-04-12T03:58:36.392Z,1.90
2023-04-12T04:01:03.715Z,1.50
2023-04-12T04:03:30.668Z,1.48
2023-04-12T04:05:57.188Z,1.70
2023-04-12T04:08:23.690Z,1.42
2023-04-12T04:10:50.195Z,1.77
2023-04-12T04:13:16.698Z,1.60
2023-04-12T04:15:43.259Z,1.17
2023-04-12T04:18:09.772Z,1.30
2023-04-12T04:20:36.239Z,1.50
2023-04-12T04:23:03.073Z,1.33
2023-04-12T04:25:29.562Z,1.30
2023-04-12T04:27:56.632Z,1.40
2023-04-12T04:30:23.574Z,1.10
2023-04-12T04:32:50.150Z,1.30
2023-04-12T04:35:16.874Z,1.00
2023-04-12T04:37:43.634Z,1.13
2023-04-12T04:40:10.283Z,1.30
2023-04-12T04:42:36.801Z,1.20
2023-04-12T04:45:03.465Z,1.40
2023-04-12T04:47:30.579Z,1.40
2023-04-12T04:49:59.472Z,1.10
2023-04-12T04:52:26.121Z,1.20
2023-04-12T04:54:54.944Z,1.00
2023-04-12T04:57:21.501Z,1.40
2023-04-12T04:59:47.971Z,1.23
2023-04-12T05:02:14.497Z,1.58
2023-04-12T05:04:41.052Z,1.05
2023-04-12T05:07:07.542Z,1.58
2023-04-12T05:09:34.024Z,1.48
2023-04-12T05:12:01.079Z,1.23
2023-04-12T05:14:37.737Z,1.40
2023-04-12T05:17:12.320Z,1.25
2023-04-12T05:19:38.797Z,1.10
2023-04-12T05:22:05.370Z,1.15
2023-04-12T05:24:31.878Z,1.25
2023-04-12T05:26:58.350Z,1.40
2023-04-12T05:29:24.853Z,1.52
2023-04-12T05:31:51.398Z,1.13
2023-04-12T05:34:17.869Z,1.20
2023-04-12T05:36:44.331Z,1.23
2023-04-12T05:39:11.212Z,1.38
2023-04-12T05:41:37.702Z,3.90
2023-04-12T05:44:04.207Z,1.67
2023-04-12T05:46:30.813Z,1.55
2023-04-12T05:48:57.731Z,0.90
2023-04-12T05:51:37.669Z,1.00
2023-04-12T05:54:07.324Z,1.67
2023-04-12T05:56:33.969Z,2.90
2023-04-12T05:59:03.706Z,2.65
2023-04-12T06:01:32.372Z,2.05
2023-04-12T06:03:59.899Z,2.10
2023-04-12T06:06:26.542Z,1.77
2023-04-12T06:08:53.203Z,1.30
2023-04-12T06:11:19.697Z,1.20
2023-04-12T06:13:46.188Z,1.20
2023-04-12T06:16:12.853Z,1.20
2023-04-12T06:18:39.714Z,1.25
2023-04-12T06:21:06.361Z,1.17
2023-04-12T06:23:33.060Z,1.20
2023-04-12T06:25:59.699Z,1.30
2023-04-12T06:28:26.735Z,1.17
2023-04-12T06:30:53.300Z,1.58
2023-04-12T06:33:19.910Z,1.30
2023-04-12T06:35:46.552Z,1.20
2023-04-12T06:38:13.048Z,1.48
2023-04-12T06:40:39.823Z,1.20
2023-04-12T06:43:06.387Z,1.20
2023-04-12T06:45:33.056Z,1.13
2023-04-12T06:47:59.548Z,0.90
2023-04-12T06:50:26.363Z,1.33
2023-04-12T06:52:52.960Z,1.60
2023-04-12T06:55:19.836Z,1.20
2023-04-12T06:57:46.348Z,1.10
2023-04-12T07:00:13.589Z,1.00
2023-04-12T07:02:40.231Z,1.20
2023-04-12T07:05:07.182Z,1.10
2023-04-12T07:07:33.752Z,1.00
2023-04-12T07:10:00.601Z,1.17
2023-04-12T07:12:27.284Z,1.10
2023-04-12T07:14:53.754Z,1.30
2023-04-12T07:17:20.236Z,1.17
2023-04-12T07:19:47.082Z,1.47
2023-04-12T07:22:16.679Z,1.20
2023-04-12T07:24:43.592Z,1.40
2023-04-12T07:27:10.080Z,1.30
2023-04-12T07:29:36.849Z,1.30
2023-04-12T07:32:03.757Z,1.23
2023-04-12T07:34:30.805Z,1.30
2023-04-12T07:36:57.409Z,1.47
2023-04-12T07:39:23.944Z,1.17
2023-04-12T07:41:50.471Z,1.30
2023-04-12T07:44:16.977Z,1.40
2023-04-12T07:46:43.670Z,1.40
2023-04-12T07:49:10.361Z,1.40
2023-04-12T07:51:37.096Z,1.30
2023-04-12T07:54:06.619Z,1.37
2023-04-12T07:56:36.503Z,1.10
2023-04-12T08:01:32.834Z,0.90
2023-04-12T08:03:59.587Z,1.40
2023-04-12T08:06:28.346Z,1.20
2023-04-12T08:08:57.128Z,1.50
2023-04-12T08:11:23.643Z,1.30
2023-04-12T08:13:50.128Z,1.10
2023-04-12T08:16:16.696Z,1.00
2023-04-12T08:18:43.287Z,1.50
2023-04-12T08:21:09.891Z,1.10
2023-04-12T08:23:36.406Z,1.10
2023-04-12T08:26:02.911Z,1.20
2023-04-12T08:28:30.245Z,1.13
2023-04-12T08:30:56.904Z,1.13
2023-04-12T08:33:23.959Z,1.37
2023-04-12T08:35:52.922Z,1.10
2023-04-12T08:38:30.623Z,2.47
2023-04-12T08:41:08.222Z,1.90
2023-04-12T08:43:35.125Z,1.23
2023-04-12T08:46:01.759Z,1.40
2023-04-12T08:48:28.598Z,1.60
2023-04-12T08:50:59.147Z,1.33
2023-04-12T08:53:25.764Z,1.30
2023-04-12T08:55:52.797Z,1.50
2023-04-12T08:58:19.773Z,1.30
2023-04-12T09:00:47.097Z,2.00
2023-04-12T09:03:13.926Z,1.20
2023-04-12T09:05:40.754Z,1.50
2023-04-12T09:08:09.111Z,1.20
2023-04-12T09:10:38.821Z,1.27
2023-04-12T09:13:06.090Z,1.25
2023-04-12T09:15:33.892Z,1.37
2023-04-12T09:18:12.151Z,1.30
2023-04-12T09:20:39.145Z,1.20
2023-04-12T09:23:20.652Z,1.00
2023-04-12T09:25:50.322Z,1.23
2023-04-12T09:28:27.308Z,1.08
2023-04-12T09:30:55.018Z,1.03
2023-04-12T09:33:42.797Z,1.50
2023-04-12T09:36:09.968Z,1.23
2023-04-12T09:38:37.064Z,1.37
2023-04-12T09:41:26.995Z,1.20
2023-04-12T09:43:54.031Z,1.33
2023-04-12T09:46:20.803Z,1.40
2023-04-12T09:48:54.723Z,1.10
2023-04-12T09:51:28.938Z,1.30
2023-04-12T09:54:00.539Z,1.23
2023-04-12T09:56:32.915Z,1.43
2023-04-12T09:59:01.808Z,1.40
2023-04-12T10:01:30.127Z,1.50
2023-04-12T10:03:57.789Z,1.33
2023-04-12T10:06:24.852Z,1.40
2023-04-12T10:08:51.409Z,1.53
2023-04-12T10:11:17.951Z,1.43
2023-04-12T10:13:44.960Z,1.37
2023-04-12T10:16:12.066Z,1.20
2023-04-12T10:18:39.004Z,1.47
2023-04-12T10:21:06.446Z,1.20
2023-04-12T10:23:32.965Z,1.23
2023-04-12T10:26:03.051Z,1.40
2023-04-12T10:30:58.111Z,1.23
2023-04-12T10:33:29.346Z,1.60
2023-04-12T10:35:56.204Z,1.67
2023-04-12T10:38:24.334Z,1.33
2023-04-12T10:41:08.523Z,1.30
2023-04-12T10:43:35.515Z,1.60
2023-04-12T10:46:02.262Z,1.63
2023-04-12T10:49:01.700Z,1.77
2023-04-12T10:51:28.390Z,1.40
2023-04-12T10:54:17.425Z,2.00
2023-04-12T10:56:45.498Z,1.53
2023-04-12T10:59:13.197Z,1.83
2023-04-12T11:01:41.080Z,1.50
2023-04-12T11:04:17.107Z,1.43
2023-04-12T11:06:53.047Z,1.67
2023-04-12T11:09:30.237Z,1.50
2023-04-12T11:12:05.975Z,1.50
2023-04-12T11:14:37.723Z,1.87
2023-04-12T11:17:13.661Z,1.47
2023-04-12T11:19:46.828Z,1.80
2023-04-12T11:22:14.987Z,2.17
2023-04-12T11:24:48.635Z,1.90
2023-04-12T11:27:15.735Z,1.73
2023-04-12T11:29:43.370Z,2.17
2023-04-12T11:32:11.921Z,2.10
2023-04-12T11:34:38.569Z,2.17
2023-04-12T11:37:07.006Z,2.33
2023-04-12T11:39:38.772Z,2.20
2023-04-12T11:42:05.535Z,1.90
2023-04-12T11:44:48.165Z,2.37
2023-04-12T11:47:23.449Z,1.65
2023-04-12T11:49:54.539Z,1.90
2023-04-12T11:52:21.864Z,2.07
2023-04-12T11:54:50.142Z,1.80
2023-04-12T11:57:18.701Z,1.90
2023-04-12T11:59:49.176Z,1.87
2023-04-12T12:02:23.282Z,1.83
2023-04-12T12:04:50.995Z,1.80
2023-04-12T12:07:18.169Z,1.80
2023-04-12T12:09:46.255Z,2.00
2023-04-12T12:12:14.275Z,1.67
2023-04-12T12:14:41.268Z,1.67
2023-04-12T12:17:16.059Z,2.20
2023-04-12T12:19:46.821Z,2.03
2023-04-12T12:22:15.897Z,1.30
2023-04-12T12:24:58.289Z,2.15
2023-04-12T12:27:34.305Z,1.80
2023-04-12T12:30:02.572Z,2.00
2023-04-12T12:32:33.628Z,1.90
2023-04-12T12:35:00.493Z,1.63
2023-04-12T12:37:28.047Z,2.30
2023-04-12T12:40:08.842Z,1.67
2023-04-12T12:42:35.431Z,1.90
2023-04-12T12:45:05.310Z,1.77
2023-04-12T12:47:31.947Z,1.77
2023-04-12T12:49:59.301Z,1.58
2023-04-12T12:52:26.306Z,1.70
2023-04-12T12:54:52.794Z,1.60
2023-04-12T12:57:19.279Z,1.40
2023-04-12T12:59:45.768Z,1.50
2023-04-12T13:02:12.364Z,1.40
2023-04-12T13:04:39.278Z,1.58
2023-04-12T13:07:08.716Z,1.30
2023-04-12T13:09:35.182Z,1.40
2023-04-12T13:12:02.443Z,1.10
2023-04-12T13:14:29.084Z,1.50
2023-04-12T13:16:55.696Z,1.23
2023-04-12T13:19:22.265Z,1.63
2023-04-12T13:21:50.518Z,1.80
2023-04-12T13:24:18.363Z,1.65
2023-04-12T13:26:44.850Z,1.50
2023-04-12T13:29:11.429Z,1.80
2023-04-12T13:31:37.912Z,1.50
2023-04-12T13:34:04.910Z,1.60
2023-04-12T13:36:31.443Z,1.30
2023-04-12T13:38:58.126Z,1.30
2023-04-12T13:41:25.751Z,1.50
2023-04-12T13:43:52.277Z,1.70
2023-04-12T13:46:18.887Z,1.83
2023-04-12T13:48:48.149Z,1.67
2023-04-12T13:51:14.678Z,1.65
2023-04-12T13:53:41.193Z,2.15
2023-04-12T13:56:07.921Z,1.50
2023-04-12T13:58:34.482Z,2.00
2023-04-12T14:01:01.163Z,2.00
2023-04-12T14:03:27.838Z,2.03
2023-04-12T14:05:54.919Z,2.40
2023-04-12T14:08:21.439Z,1.90
2023-04-12T14:10:47.989Z,2.33
2023-04-12T14:13:14.517Z,2.38
2023-04-12T14:15:41.023Z,2.28
2023-04-12T14:18:08.079Z,2.30
2023-04-12T14:20:37.466Z,2.40
2023-04-12T14:23:07.984Z,2.10
2023-04-12T14:25:35.537Z,3.10
2023-04-12T14:28:02.167Z,2.60
2023-04-12T14:30:28.737Z,2.35
2023-04-12T14:32:55.252Z,2.33
2023-04-12T14:35:23.738Z,2.67
2023-04-12T14:37:50.391Z,2.40
2023-04-12T14:40:17.471Z,1.70
2023-04-12T14:42:44.112Z,1.93
2023-04-12T14:45:11.233Z,2.17
2023-04-12T14:47:39.348Z,2.25
2023-04-12T14:50:06.440Z,1.98
2023-04-12T14:52:32.997Z,2.23
2023-04-12T14:54:59.479Z,2.47
2023-04-12T14:57:25.963Z,2.65
2023-04-12T14:59:52.496Z,2.45
2023-04-12T15:02:19.546Z,2.55
2023-04-12T15:04:49.014Z,2.78
2023-04-12T15:07:15.638Z,2.72
2023-04-12T15:09:42.165Z,2.40
2023-04-12T15:12:08.679Z,3.13
2023-04-12T15:14:35.755Z,3.25
2023-04-12T15:17:02.412Z,3.10
2023-04-12T15:19:28.914Z,3.70
2023-04-12T15:21:55.556Z,4.22
2023-04-12T15:24:22.564Z,4.00
2023-04-12T15:26:49.908Z,3.67
2023-04-12T15:29:16.952Z,3.35
2023-04-12T15:31:43.866Z,4.03
2023-04-12T15:34:11.516Z,3.28
2023-04-12T15:36:38.361Z,2.55
2023-04-12T15:39:04.877Z,2.10
2023-04-12T15:41:36.589Z,1.90
2023-04-12T15:44:07.311Z,2.40
2023-04-12T15:46:34.871Z,2.45
2023-04-12T15:49:01.959Z,2.22
2023-04-12T15:51:29.180Z,1.90
2023-04-12T15:53:56.103Z,1.70
2023-04-12T15:56:22.795Z,1.50
2023-04-12T15:58:53.184Z,1.70
2023-04-12T16:01:19.773Z,1.50
2023-04-12T16:03:46.894Z,2.40
2023-04-12T16:06:13.817Z,2.67
2023-04-12T16:08:40.391Z,2.53
2023-04-12T16:11:06.985Z,2.67
2023-04-12T16:13:33.546Z,3.50
2023-04-12T16:16:03.542Z,3.45
2023-04-12T16:18:30.447Z,3.40
2023-04-12T16:20:58.095Z,4.10
2023-04-12T16:23:24.589Z,3.63
2023-04-12T16:25:51.121Z,3.90
2023-04-12T16:28:17.744Z,3.15
2023-04-12T16:30:44.280Z,3.20
2023-04-12T16:33:11.225Z,2.97
2023-04-12T16:35:39.216Z,3.05
2023-04-12T16:38:05.747Z,2.90
2023-04-12T16:40:32.225Z,2.55
2023-04-12T16:42:58.730Z,2.88
2023-04-12T16:45:25.319Z,2.15
2023-04-12T16:47:52.128Z,2.50
2023-04-12T16:50:18.638Z,2.55
2023-04-12T16:52:45.132Z,1.98
2023-04-12T16:55:12.291Z,2.10
2023-04-12T16:57:40.293Z,1.92
2023-04-12T17:00:08.435Z,2.20
2023-04-12T17:02:35.058Z,1.83
2023-04-12T17:05:01.725Z,2.03
2023-04-12T17:07:28.286Z,2.05
2023-04-12T17:09:54.874Z,1.70
2023-04-12T17:12:21.583Z,1.83
2023-04-12T17:14:48.062Z,1.70
2023-04-12T17:17:14.578Z,1.45
2023-04-12T17:19:44.663Z,1.63
2023-04-12T17:22:11.221Z,1.90
2023-04-12T17:24:37.838Z,1.88
2023-04-12T17:27:04.321Z,1.60
2023-04-12T17:29:30.822Z,1.40
2023-04-12T17:31:57.375Z,1.55
2023-04-12T17:34:24.123Z,0.80
2023-04-12T17:36:50.654Z,1.42
2023-04-12T17:39:17.177Z,1.40
2023-04-12T17:41:43.691Z,1.20
2023-04-12T17:44:10.242Z,1.10
2023-04-12T17:46:36.777Z,1.15
2023-04-12T17:49:03.321Z,0.93
2023-04-12T17:51:29.854Z,0.95
2023-04-12T17:53:56.423Z,0.88
2023-04-12T17:56:22.949Z,0.73
2023-04-12T17:58:49.512Z,0.60
2023-04-12T18:01:16.098Z,1.50
2023-04-12T18:03:42.736Z,1.15
2023-04-12T18:06:09.426Z,1.20
2023-04-12T18:08:35.894Z,1.10
2023-04-12T18:11:02.375Z,1.00
2023-04-12T18:13:28.895Z,0.82
2023-04-12T18:15:55.403Z,0.93
2023-04-12T18:18:21.960Z,1.08
2023-04-12T18:20:48.458Z,0.90
2023-04-12T18:23:14.975Z,1.00
2023-04-12T18:25:41.455Z,1.30
2023-04-12T18:28:08.109Z,0.88
2023-04-12T18:30:34.813Z,1.10
2023-04-12T18:33:03.408Z,2.95
2023-04-12T18:35:30.547Z,2.10
2023-04-12T18:37:57.058Z,2.38
2023-04-12T18:40:23.574Z,3.22
2023-04-12T18:42:50.091Z,2.30
2023-04-12T18:45:16.650Z,2.50
2023-04-12T18:47:43.226Z,2.65
2023-04-12T18:50:09.965Z,2.53
2023-04-12T18:52:36.864Z,1.80
2023-04-12T18:55:03.498Z,1.60
2023-04-12T18:57:30.180Z,1.13
2023-04-12T18:59:56.904Z,2.30
2023-04-12T19:02:23.604Z,1.80
2023-04-12T19:04:50.296Z,2.20
2023-04-12T19:07:16.793Z,1.90
2023-04-12T19:09:43.333Z,2.30
2023-04-12T19:12:09.811Z,2.50
2023-04-12T19:14:36.319Z,2.55
2023-04-12T19:17:02.875Z,2.10
2023-04-12T19:19:29.393Z,1.50
2023-04-12T19:21:55.971Z,1.60
2023-04-12T19:24:22.534Z,1.33
2023-04-12T19:26:50.022Z,2.10
2023-04-12T19:29:16.519Z,1.52
2023-04-12T19:31:43.124Z,1.23
2023-04-12T19:34:12.056Z,1.00
2023-04-12T19:36:38.583Z,1.50
2023-04-12T19:39:05.088Z,1.38
2023-04-12T19:41:34.410Z,1.00
2023-04-12T19:44:01.134Z,1.15
2023-04-12T19:46:27.873Z,0.82
2023-04-12T19:48:54.393Z,0.77
2023-04-12T19:51:20.906Z,0.68
2023-04-12T19:53:47.450Z,0.55
2023-04-12T19:56:14.005Z,0.75
2023-04-12T19:58:40.826Z,1.00
2023-04-12T20:01:07.478Z,0.70
2023-04-12T20:03:33.994Z,0.80
2023-04-12T20:06:00.571Z,1.05
2023-04-12T20:08:27.099Z,1.42
2023-04-12T20:10:53.612Z,2.28
2023-04-12T20:13:20.155Z,1.13
2023-04-12T20:15:46.635Z,1.30
2023-04-12T20:18:13.135Z,3.00
2023-04-12T20:20:39.626Z,2.33
2023-04-12T20:23:06.102Z,0.95
2023-04-12T20:25:35.650Z,0.95
2023-04-12T20:28:02.819Z,0.70
2023-04-12T20:30:29.344Z,0.75
2023-04-12T20:32:55.915Z,0.90
2023-04-12T20:35:22.552Z,2.00
2023-04-12T20:37:49.046Z,1.20
2023-04-12T20:40:15.698Z,0.80
2023-04-12T20:42:42.235Z,0.82
2023-04-12T20:45:09.218Z,1.73
2023-04-12T20:47:36.249Z,1.33
2023-04-12T20:50:02.757Z,1.00
2023-04-12T20:52:29.463Z,0.75
2023-04-12T20:55:06.048Z,0.70
2023-04-12T20:57:32.691Z,0.80
2023-04-12T20:59:59.206Z,0.90
2023-04-12T21:02:25.987Z,0.55
2023-04-12T21:04:52.589Z,0.60
2023-04-12T21:07:19.100Z,1.30
2023-04-12T21:09:45.603Z,0.68
2023-04-12T21:12:12.104Z,0.50
2023-04-12T21:14:38.616Z,0.47
2023-04-12T21:17:05.295Z,0.65
2023-04-12T21:19:31.801Z,0.60
2023-04-12T21:21:58.994Z,0.60
2023-04-12T21:24:25.615Z,0.70
2023-04-12T21:26:55.413Z,0.57
2023-04-12T21:29:22.233Z,0.47
2023-04-12T21:31:48.834Z,0.60
2023-04-12T21:34:15.649Z,0.52
2023-04-12T21:36:42.208Z,1.02
2023-04-12T21:39:08.872Z,0.75
2023-04-12T21:41:35.374Z,0.70
2023-04-12T21:44:01.926Z,0.68
2023-04-12T21:46:28.533Z,0.40
2023-04-12T21:48:55.106Z,0.65
2023-04-12T21:51:21.627Z,0.63
2023-04-12T21:53:48.129Z,0.60
2023-04-12T21:56:14.764Z,0.57
2023-04-12T21:58:41.315Z,0.73
2023-04-12T22:01:07.881Z,1.00
2023-04-12T22:03:34.654Z,0.60
2023-04-12T22:06:04.618Z,0.47
2023-04-12T22:08:31.933Z,0.60
2023-04-12T22:10:58.449Z,0.80
2023-04-12T22:13:24.972Z,0.93
2023-04-12T22:15:51.550Z,0.85
2023-04-12T22:18:18.528Z,0.90
2023-04-12T22:20:45.075Z,1.15
2023-04-12T22:23:11.617Z,0.77
2023-04-12T22:25:38.110Z,0.98
2023-04-12T22:28:04.814Z,0.80
2023-04-12T22:30:31.487Z,0.90
2023-04-12T22:32:58.035Z,0.70
2023-04-12T22:35:24.588Z,0.70
2023-04-12T22:37:51.255Z,0.88
2023-04-12T22:40:17.886Z,0.80
2023-04-12T22:42:44.392Z,0.70
2023-04-12T22:45:11.406Z,0.70
2023-04-12T22:47:37.984Z,1.20
2023-04-12T22:50:04.785Z,0.70
2023-04-12T22:52:31.302Z,0.90
2023-04-12T22:54:57.913Z,0.85
2023-04-12T22:57:24.505Z,1.10
2023-04-12T22:59:51.937Z,0.82
2023-04-12T23:02:18.511Z,0.98
2023-04-12T23:04:45.079Z,0.70
2023-04-12T23:07:11.672Z,0.70
2023-04-12T23:09:38.290Z,0.75
2023-04-12T23:12:04.901Z,0.80
2023-04-12T23:14:31.413Z,0.80
2023-04-12T23:16:57.878Z,0.70
2023-04-12T23:19:24.442Z,0.82
2023-04-12T23:21:50.946Z,0.85
2023-04-12T23:24:17.442Z,0.93
2023-04-12T23:26:44.206Z,0.80
2023-04-12T23:29:11.415Z,0.93
2023-04-12T23:31:38.116Z,0.70
2023-04-12T23:34:04.660Z,0.85
2023-04-12T23:36:31.877Z,0.80
2023-04-12T23:38:58.921Z,1.13
2023-04-12T23:41:26.924Z,1.10
2023-04-12T23:43:56.289Z,0.73
2023-04-12T23:46:24.529Z,0.80
2023-04-12T23:48:51.070Z,1.00
2023-04-12T23:51:17.565Z,0.70
2023-04-12T23:53:44.102Z,0.90
2023-04-12T23:56:10.808Z,1.00
2023-04-12T23:58:37.277Z,1.10
